createdAt,value
2019-05-30T04:02:06.414Z,4.62
2019-05-30T04:04:42.948Z,5.05
2019-05-30T04:07:16.081Z,5.75
2019-05-30T04:09:48.188Z,5.80
2019-05-30T04:12:40.320Z,4.22
2019-05-30T04:15:19.054Z,5.60
2019-05-30T04:17:49.006Z,3.37
2019-05-30T04:20:22.529Z,4.08
2019-05-30T04:22:50.549Z,9.75
2019-05-30T04:25:20.516Z,5.12
2019-05-30T04:27:50.467Z,3.98
2019-05-30T04:30:20.430Z,6.50
2019-05-30T04:32:50.374Z,8.23
2019-05-30T04:35:20.334Z,9.78
2019-05-30T04:37:50.294Z,4.90
2019-05-30T04:40:20.339Z,7.62
2019-05-30T04:42:50.283Z,5.72
2019-05-30T04:45:20.405Z,6.03
2019-05-30T04:47:50.363Z,4.55
2019-05-30T04:50:20.889Z,10.38
2019-05-30T04:52:51.337Z,4.78
2019-05-30T04:55:23.145Z,5.50
2019-05-30T04:57:52.957Z,7.22
2019-05-30T05:00:23.895Z,5.53
2019-05-30T05:02:53.829Z,6.87
2019-05-30T05:05:26.996Z,4.87
2019-05-30T05:07:55.968Z,5.50
2019-05-30T05:10:25.911Z,4.92
2019-05-30T05:12:55.895Z,5.58
2019-05-30T05:15:25.825Z,5.20
2019-05-30T05:17:55.840Z,4.45
2019-05-30T05:20:25.783Z,4.65
2019-05-30T05:22:56.099Z,4.12
2019-05-30T05:25:26.055Z,2.60
2019-05-30T05:27:56.034Z,5.25
2019-05-30T05:30:25.981Z,6.03
2019-05-30T05:32:55.985Z,3.83
2019-05-30T05:35:25.932Z,3.22
2019-05-30T05:37:55.942Z,4.65
2019-05-30T05:40:25.880Z,5.12
2019-05-30T05:42:55.859Z,6.87
2019-05-30T05:45:25.946Z,4.45
2019-05-30T05:47:55.940Z,3.12
2019-05-30T05:50:25.887Z,4.42
2019-05-30T05:52:55.867Z,4.05
2019-05-30T05:55:25.855Z,4.35
2019-05-30T05:57:55.836Z,5.03
2019-05-30T06:00:25.782Z,6.92
2019-05-30T06:02:55.762Z,3.70
2019-05-30T06:05:25.753Z,4.78
2019-05-30T06:07:55.705Z,5.00
2019-05-30T06:10:25.810Z,3.75
2019-05-30T06:12:55.740Z,5.50
2019-05-30T06:15:25.752Z,3.33
2019-05-30T06:17:55.728Z,4.70
2019-05-30T06:20:25.727Z,3.47
2019-05-30T06:22:55.676Z,7.37
2019-05-30T06:25:30.420Z,5.00
2019-05-30T06:27:57.238Z,4.00
2019-05-30T06:30:28.578Z,2.98
2019-05-30T06:32:58.809Z,5.40
2019-05-30T06:35:29.486Z,5.90
2019-05-30T06:37:59.505Z,7.45
2019-05-30T06:40:30.948Z,4.28
2019-05-30T06:43:01.177Z,5.42
2019-05-30T06:45:31.171Z,2.83
2019-05-30T06:48:01.116Z,3.25
2019-05-30T06:50:31.097Z,6.78
2019-05-30T06:53:01.060Z,6.83
2019-05-30T06:55:31.446Z,7.45
2019-05-30T06:58:01.469Z,4.22
2019-05-30T07:00:32.959Z,2.95
2019-05-30T07:03:03.026Z,8.33
2019-05-30T07:05:34.574Z,8.33
2019-05-30T07:08:04.681Z,4.67
2019-05-30T07:10:34.663Z,6.92
2019-05-30T07:13:04.754Z,8.33
2019-05-30T07:15:35.643Z,8.18
2019-05-30T07:18:05.778Z,5.78
2019-05-30T07:20:35.779Z,6.30
2019-05-30T07:23:05.760Z,1.98
2019-05-30T07:25:35.816Z,5.65
2019-05-30T07:28:05.929Z,4.37
2019-05-30T07:30:36.017Z,5.17
2019-05-30T07:33:06.111Z,5.15
2019-05-30T07:35:36.095Z,4.15
2019-05-30T07:38:06.166Z,4.50
2019-05-30T07:40:36.498Z,4.45
2019-05-30T07:43:06.837Z,4.58
2019-05-30T07:45:37.059Z,2.92
2019-05-30T07:48:07.103Z,2.45
2019-05-30T07:50:37.296Z,3.80
2019-05-30T07:53:07.315Z,5.42
2019-05-30T07:55:37.394Z,6.37
2019-05-30T07:58:07.343Z,4.58
2019-05-30T08:00:37.674Z,4.40
2019-05-30T08:03:07.660Z,3.33
2019-05-30T08:05:38.990Z,1.65
2019-05-30T08:08:09.001Z,4.20
2019-05-30T08:10:39.010Z,3.00
2019-05-30T08:13:08.982Z,2.98
2019-05-30T08:15:43.868Z,4.78
2019-05-30T08:18:10.728Z,3.85
2019-05-30T08:20:40.778Z,6.30
2019-05-30T08:23:10.799Z,2.52
2019-05-30T08:25:40.777Z,3.37
2019-05-30T08:28:10.795Z,3.35
2019-05-30T08:30:40.912Z,4.65
2019-05-30T08:33:10.903Z,2.67
2019-05-30T08:35:49.222Z,7.20
2019-05-30T08:38:12.664Z,4.62
2019-05-30T08:40:42.706Z,2.90
2019-05-30T08:43:12.724Z,3.00
2019-05-30T08:45:42.676Z,2.42
2019-05-30T08:48:12.758Z,3.92
2019-05-30T08:50:44.709Z,2.65
2019-05-30T08:53:14.496Z,6.85
2019-05-30T08:55:44.439Z,1.40
2019-05-30T08:58:15.411Z,1.87
2019-05-30T09:00:45.411Z,4.70
2019-05-30T09:03:15.673Z,1.50
2019-05-30T09:06:00.953Z,3.52
2019-05-30T09:08:19.579Z,2.45
2019-05-30T09:10:49.586Z,5.58
2019-05-30T09:13:19.616Z,4.03
2019-05-30T09:15:49.718Z,2.95
2019-05-30T09:18:19.891Z,2.55
2019-05-30T09:20:49.900Z,2.45
2019-05-30T09:23:20.161Z,3.62
2019-05-30T09:25:50.562Z,3.70
2019-05-30T09:28:20.702Z,2.65
2019-05-30T09:30:50.752Z,2.12
2019-05-30T09:33:20.708Z,2.08
2019-05-30T09:35:50.957Z,2.12
2019-05-30T09:38:20.984Z,3.17
2019-05-30T09:40:51.084Z,3.90
2019-05-30T09:43:21.112Z,3.35
2019-05-30T09:45:51.484Z,3.60
2019-05-30T09:48:21.661Z,4.22
2019-05-30T09:50:51.650Z,2.62
2019-05-30T09:53:22.861Z,3.90
2019-05-30T09:55:53.170Z,2.40
2019-05-30T09:58:23.217Z,3.70
2019-05-30T10:01:47.989Z,1.77
2019-05-30T10:03:59.055Z,2.58
2019-05-30T10:06:30.173Z,3.17
2019-05-30T10:09:00.284Z,2.75
2019-05-30T10:11:30.233Z,1.40
2019-05-30T10:14:00.199Z,3.62
2019-05-30T10:16:31.361Z,3.85
2019-05-30T10:19:02.562Z,3.05
2019-05-30T10:21:32.765Z,3.55
2019-05-30T10:24:02.790Z,3.17
2019-05-30T10:26:33.398Z,4.80
2019-05-30T10:29:03.473Z,4.60
2019-05-30T10:31:33.442Z,5.72
2019-05-30T10:34:03.407Z,2.80
2019-05-30T10:36:43.745Z,4.15
2019-05-30T10:39:07.299Z,2.83
2019-05-30T10:41:37.348Z,2.67
2019-05-30T10:44:07.298Z,1.20
2019-05-30T10:46:37.478Z,5.72
2019-05-30T10:49:07.485Z,2.20
2019-05-30T10:51:37.482Z,1.82
2019-05-30T10:54:07.458Z,3.58
2019-05-30T10:56:37.464Z,3.62
2019-05-30T10:59:07.485Z,3.08
2019-05-30T11:01:37.454Z,2.75
2019-05-30T11:04:08.385Z,1.85
2019-05-30T11:07:04.941Z,6.60
2019-05-30T11:09:21.580Z,4.22
2019-05-30T11:11:52.769Z,6.22
2019-05-30T11:14:22.839Z,2.95
2019-05-30T11:16:53.758Z,2.12
2019-05-30T11:19:23.814Z,3.20
2019-05-30T11:21:54.641Z,2.25
2019-05-30T11:24:24.631Z,1.42
2019-05-30T11:26:55.619Z,3.33
2019-05-30T11:29:26.338Z,1.25
2019-05-30T11:31:57.014Z,2.40
2019-05-30T11:34:27.179Z,4.22
2019-05-30T11:36:59.339Z,2.20
2019-05-30T11:39:30.396Z,2.60
2019-05-30T11:42:00.588Z,3.17
2019-05-30T11:44:30.759Z,3.70
2019-05-30T11:47:01.129Z,3.45
2019-05-30T11:49:31.200Z,3.98
2019-05-30T11:52:01.177Z,1.70
2019-05-30T11:54:31.190Z,3.42
2019-05-30T11:57:01.315Z,2.72
2019-05-30T11:59:31.329Z,5.42
2019-05-30T12:02:01.395Z,3.77
2019-05-30T12:04:31.413Z,2.67
2019-05-30T12:07:02.942Z,4.37
2019-05-30T12:09:33.022Z,4.58
2019-05-30T12:12:03.219Z,2.37
2019-05-30T12:14:33.397Z,3.33
2019-05-30T12:17:03.469Z,3.60
2019-05-30T12:19:33.412Z,3.20
2019-05-30T12:22:03.600Z,2.42
2019-05-30T12:24:33.622Z,3.70
2019-05-30T12:27:03.692Z,2.47
2019-05-30T12:29:33.750Z,1.92
2019-05-30T12:32:03.924Z,1.77
2019-05-30T12:34:33.876Z,3.10
2019-05-30T12:37:04.344Z,2.35
2019-05-30T12:39:34.351Z,4.22
2019-05-30T12:42:04.384Z,4.87
2019-05-30T12:44:34.386Z,5.58
2019-05-30T12:47:04.594Z,1.87
2019-05-30T12:49:34.553Z,2.92
2019-05-30T12:52:05.878Z,1.92
2019-05-30T12:54:36.323Z,2.40
2019-05-30T12:57:07.035Z,1.27
2019-05-30T12:59:37.088Z,1.95
2019-05-30T13:02:07.313Z,2.05
2019-05-30T13:04:37.307Z,3.52
2019-05-30T13:07:07.811Z,5.33
2019-05-30T13:09:37.761Z,4.78
2019-05-30T13:12:07.737Z,3.10
2019-05-30T13:14:37.743Z,3.30
2019-05-30T13:17:07.687Z,1.47
2019-05-30T13:19:37.778Z,1.80
2019-05-30T13:22:07.792Z,3.77
2019-05-30T13:24:37.772Z,4.20
2019-05-30T13:27:07.800Z,3.77
2019-05-30T13:29:37.799Z,1.52
2019-05-30T13:32:07.748Z,1.65
2019-05-30T13:34:37.710Z,1.00
2019-05-30T13:37:07.701Z,1.37
2019-05-30T13:39:37.661Z,3.27
2019-05-30T13:42:07.889Z,3.87
2019-05-30T13:44:38.773Z,3.12
2019-05-30T13:47:09.123Z,1.35
2019-05-30T13:49:39.091Z,2.10
2019-05-30T13:52:09.202Z,5.92
2019-05-30T13:54:39.177Z,3.95
2019-05-30T13:57:09.765Z,4.83
2019-05-30T13:59:39.932Z,1.65
2019-05-30T14:02:10.359Z,2.42
2019-05-30T14:04:40.322Z,2.42
2019-05-30T14:07:10.525Z,1.77
2019-05-30T14:09:40.423Z,6.12
2019-05-30T14:12:10.702Z,6.37
2019-05-30T14:14:40.786Z,5.28
2019-05-30T14:17:12.420Z,1.72
2019-05-30T14:19:42.459Z,4.60
2019-05-30T14:22:12.428Z,1.50
2019-05-30T14:24:42.572Z,3.45
2019-05-30T14:27:12.534Z,1.60
2019-05-30T14:29:42.501Z,3.58
2019-05-30T14:32:12.456Z,3.58
2019-05-30T14:34:42.468Z,4.35
2019-05-30T14:37:12.608Z,3.50
2019-05-30T14:39:42.865Z,2.90
2019-05-30T14:42:13.270Z,3.95
2019-05-30T14:44:43.410Z,2.65
2019-05-30T14:47:13.355Z,4.40
2019-05-30T14:49:43.340Z,3.20
2019-05-30T14:52:13.482Z,3.27
2019-05-30T14:54:44.420Z,3.42
2019-05-30T14:57:14.389Z,2.17
2019-05-30T14:59:44.377Z,3.08
2019-05-30T15:02:14.324Z,1.87
2019-05-30T15:04:44.327Z,3.35
2019-05-30T15:07:15.550Z,4.17
2019-05-30T15:09:45.562Z,2.40
2019-05-30T15:12:16.805Z,2.72
2019-05-30T15:14:46.989Z,4.00
2019-05-30T15:17:17.726Z,4.65
2019-05-30T15:19:47.730Z,4.78
2019-05-30T15:22:18.508Z,3.40
2019-05-30T15:24:48.563Z,3.90
2019-05-30T15:27:20.681Z,2.22
2019-05-30T15:29:50.137Z,1.82
2019-05-30T15:32:20.094Z,4.95
2019-05-30T15:34:51.069Z,3.12
2019-05-30T15:37:21.026Z,2.10
2019-05-30T15:39:51.004Z,3.52
2019-05-30T15:42:20.947Z,1.92
2019-05-30T15:44:50.949Z,5.95
2019-05-30T15:47:20.917Z,3.40
2019-05-30T15:49:52.297Z,1.50
2019-05-30T15:52:22.455Z,3.08
2019-05-30T15:54:52.456Z,5.55
2019-05-30T15:57:22.435Z,3.52
2019-05-30T15:59:52.657Z,5.47
2019-05-30T16:02:23.245Z,3.20
2019-05-30T16:04:53.361Z,1.62
2019-05-30T16:07:23.339Z,3.55
2019-05-30T16:09:53.341Z,3.37
2019-05-30T16:12:23.295Z,2.30
2019-05-30T16:14:53.292Z,2.87
2019-05-30T16:17:23.254Z,2.00
2019-05-30T16:19:53.276Z,3.08
2019-05-30T16:22:23.328Z,2.75
2019-05-30T16:24:53.373Z,1.52
2019-05-30T16:27:24.379Z,4.50
2019-05-30T16:29:54.324Z,2.00
2019-05-30T16:32:24.326Z,3.85
2019-05-30T16:34:54.269Z,3.62
2019-05-30T16:37:24.242Z,1.80
2019-05-30T16:40:05.317Z,1.50
2019-05-30T16:42:26.527Z,4.40
2019-05-30T16:44:56.441Z,4.75
2019-05-30T16:47:26.660Z,3.80
2019-05-30T16:49:56.776Z,3.92
2019-05-30T16:52:27.289Z,2.60
2019-05-30T16:54:57.371Z,1.85
2019-05-30T16:57:27.386Z,1.62
2019-05-30T16:59:57.411Z,2.50
2019-05-30T17:02:27.507Z,1.98
2019-05-30T17:04:57.546Z,5.08
2019-05-30T17:07:27.666Z,3.40
2019-05-30T17:09:57.623Z,3.98
2019-05-30T17:12:27.584Z,4.47
2019-05-30T17:14:57.554Z,2.80
2019-05-30T17:17:27.514Z,2.08
2019-05-30T17:19:57.562Z,7.17
2019-05-30T17:22:30.286Z,5.60
2019-05-30T17:24:59.127Z,2.30
2019-05-30T17:27:29.381Z,6.03
2019-05-30T17:29:59.442Z,5.08
2019-05-30T17:32:29.411Z,4.00
2019-05-30T17:34:59.388Z,2.95
2019-05-30T17:37:29.370Z,1.92
2019-05-30T17:39:59.380Z,3.92
2019-05-30T17:42:29.400Z,3.15
2019-05-30T17:45:00.601Z,3.02
2019-05-30T17:47:30.878Z,2.62
2019-05-30T17:50:00.848Z,3.37
2019-05-30T17:52:31.047Z,2.75
2019-05-30T17:55:01.024Z,4.62
2019-05-30T17:57:31.263Z,2.90
2019-05-30T18:00:02.928Z,2.10
2019-05-30T18:02:34.486Z,2.58
2019-05-30T18:05:07.527Z,1.90
2019-05-30T18:07:37.635Z,3.02
2019-05-30T18:10:08.308Z,4.20
2019-05-30T18:12:38.663Z,4.40
2019-05-30T18:15:11.198Z,4.33
2019-05-30T18:17:41.358Z,4.65
2019-05-30T18:20:12.190Z,2.12
2019-05-30T18:22:42.431Z,2.77
2019-05-30T18:25:13.386Z,2.27
2019-05-30T18:27:43.805Z,3.70
2019-05-30T18:30:14.721Z,2.52
2019-05-30T18:32:46.564Z,5.75
2019-05-30T18:35:17.135Z,3.37
2019-05-30T18:37:48.747Z,2.87
2019-05-30T18:40:35.726Z,3.15
2019-05-30T18:43:07.754Z,4.15
2019-05-30T18:45:40.080Z,3.27
2019-05-30T18:48:11.468Z,2.05
2019-05-30T18:50:42.067Z,4.92
2019-05-30T18:53:13.688Z,4.80
2019-05-30T18:55:44.423Z,1.35
2019-05-30T18:58:15.714Z,3.35
2019-05-30T19:00:46.268Z,3.83
2019-05-30T19:03:16.968Z,1.62
2019-05-30T19:05:48.547Z,5.22
2019-05-30T19:08:20.770Z,6.20
2019-05-30T19:10:51.301Z,4.37
2019-05-30T19:13:21.831Z,2.98
2019-05-30T19:15:53.099Z,1.67
2019-05-30T19:18:25.353Z,1.50
2019-05-30T19:20:55.837Z,2.10
2019-05-30T19:23:26.238Z,3.02
2019-05-30T19:25:56.700Z,2.55
2019-05-30T19:28:28.557Z,3.00
2019-05-30T19:30:59.133Z,3.83
2019-05-30T19:33:30.899Z,5.90
2019-05-30T19:36:01.619Z,29.40
2019-05-30T19:38:33.717Z,14.07
2019-05-30T19:41:05.054Z,5.30
2019-05-30T19:43:35.925Z,1.50
2019-05-30T19:46:07.117Z,1.77
2019-05-30T19:48:38.542Z,3.12
2019-05-30T19:51:09.227Z,2.25
2019-05-30T19:53:39.673Z,4.20
2019-05-30T19:56:10.696Z,3.92
2019-05-30T19:58:41.234Z,13.80
2019-05-30T20:01:13.682Z,66.00
2019-05-30T20:03:47.984Z,84.03
2019-05-30T20:06:19.964Z,82.47
2019-05-30T20:08:55.713Z,63.65
2019-05-30T20:11:27.035Z,78.47
2019-05-30T20:13:57.567Z,33.02
2019-05-30T20:16:28.190Z,15.03
2019-05-30T20:18:58.616Z,7.47
2019-05-30T20:21:29.120Z,5.15
2019-05-30T20:23:59.771Z,4.60
2019-05-30T20:26:30.234Z,4.83
2019-05-30T20:29:00.590Z,6.50
2019-05-30T20:31:30.641Z,6.50
2019-05-30T20:34:00.862Z,4.10
2019-05-30T20:36:31.072Z,5.03
2019-05-30T20:39:01.316Z,4.35
2019-05-30T20:41:33.072Z,4.10
2019-05-30T20:44:03.440Z,4.83
2019-05-30T20:46:34.782Z,1.72
2019-05-30T20:49:05.487Z,3.42
2019-05-30T20:51:37.233Z,3.00
2019-05-30T20:54:07.472Z,1.98
2019-05-30T20:56:37.717Z,3.37
2019-05-30T20:59:10.198Z,2.77
2019-05-30T21:01:39.888Z,15.93
2019-05-30T21:04:10.317Z,9.58
2019-05-30T21:06:41.532Z,5.65
2019-05-30T21:09:27.793Z,5.00
2019-05-30T21:11:46.599Z,6.17
2019-05-30T21:14:17.918Z,4.60
2019-05-30T21:16:50.605Z,3.65
2019-05-30T21:19:21.659Z,2.02
2019-05-30T21:21:51.686Z,2.77
2019-05-30T21:24:21.643Z,1.52
2019-05-30T21:26:51.650Z,2.77
2019-05-30T21:29:21.899Z,2.87
